Singer Island, Florida
Current Conditions -  °F | °C
As of 5:53 PM on Tuesday 21 Oct 2014 (Local Time) from KPBI Reporting Station
Moderate Rain Moderate Rain  
Wind Chill: 71°   Ceiling: 1900
Heat Index: 71°   Visibility: 3mi
Dew Point: 70°   Wind: 5mph
Humidity: 96%   Direction: 90°E
Pressure: 29.93"   Gusts: NA
Location:  26.7789°N, 80.0745°W
Report Text: KPBI 212153Z 09004KT 3SM R10L/6000VP6000FT RA BR FEW006 BKN019CB OVC042 22/21 A2993 RMK AO2 TSE25 SLP133 OCNL LTGIC DSNT E-SE CB OHD-ALQDS MOV E CB DSNT E-SE P0027 T02170211
Loading
Personal Weather Stations






























Interactive Weather Map
Tropical Storm Tracking
New forecast layout! Learn more

10-Day Weather Forecast

Advertisements
Track Severe Weather on mobile